sensor_id;sensor_type;location;lat;lon;timestamp;pressure;altitude;pressure_sealevel;temperature;humidity
73453;BME280;61687;56.232;43.854;2022-11-04T00:00:02;100586.78;;;2.18;77.55
73453;BME280;61687;56.232;43.854;2022-11-04T00:02:30;100585.97;;;2.17;76.73
73453;BME280;61687;56.232;43.854;2022-11-04T00:04:56;100587.88;;;2.17;76.67
73453;BME280;61687;56.232;43.854;2022-11-04T00:07:23;100588.66;;;2.17;76.73
73453;BME280;61687;56.232;43.854;2022-11-04T00:10:07;100590.09;;;2.14;76.76
73453;BME280;61687;56.232;43.854;2022-11-04T00:12:33;100590.16;;;2.09;76.84
73453;BME280;61687;56.232;43.854;2022-11-04T00:14:59;100586.97;;;2.07;76.79
73453;BME280;61687;56.232;43.854;2022-11-04T00:17:45;100589.28;;;2.14;76.77
73453;BME280;61687;56.232;43.854;2022-11-04T00:20:11;100588.56;;;2.08;77.03
73453;BME280;61687;56.232;43.854;2022-11-04T00:22:55;100597.00;;;2.07;77.07
73453;BME280;61687;56.232;43.854;2022-11-04T00:25:39;100594.28;;;2.07;77.11
73453;BME280;61687;56.232;43.854;2022-11-04T00:28:23;100592.09;;;2.09;77.09
73453;BME280;61687;56.232;43.854;2022-11-04T00:31:08;100596.78;;;2.17;76.89
73453;BME280;61687;56.232;43.854;2022-11-04T00:33:54;100598.56;;;2.22;76.63
73453;BME280;61687;56.232;43.854;2022-11-04T00:36:21;100603.16;;;2.21;76.47
73453;BME280;61687;56.232;43.854;2022-11-04T00:38:47;100596.47;;;2.19;76.55
73453;BME280;61687;56.232;43.854;2022-11-04T00:41:13;100602.69;;;2.19;76.41
73453;BME280;61687;56.232;43.854;2022-11-04T00:43:55;100595.56;;;2.23;76.34
73453;BME280;61687;56.232;43.854;2022-11-04T00:46:21;100595.47;;;2.28;76.13
73453;BME280;61687;56.232;43.854;2022-11-04T00:48:47;100601.03;;;2.32;76.04
73453;BME280;61687;56.232;43.854;2022-11-04T00:51:14;100597.63;;;2.40;75.86
73453;BME280;61687;56.232;43.854;2022-11-04T00:53:40;100600.22;;;2.46;75.83
73453;BME280;61687;56.232;43.854;2022-11-04T00:56:05;100606.94;;;2.48;75.59
73453;BME280;61687;56.232;43.854;2022-11-04T00:58:31;100591.19;;;2.50;75.35
73453;BME280;61687;56.232;43.854;2022-11-04T01:00:57;100593.41;;;2.48;75.03
73453;BME280;61687;56.232;43.854;2022-11-04T01:03:23;100595.50;;;2.51;75.00
73453;BME280;61687;56.232;43.854;2022-11-04T01:05:49;100590.59;;;2.53;74.86
73453;BME280;61687;56.232;43.854;2022-11-04T01:08:15;100593.16;;;2.58;74.61
73453;BME280;61687;56.232;43.854;2022-11-04T01:10:41;100598.78;;;2.62;74.64
73453;BME280;61687;56.232;43.854;2022-11-04T01:13:10;100594.97;;;2.63;74.33
73453;BME280;61687;56.232;43.854;2022-11-04T01:15:37;100597.97;;;2.62;74.12
73453;BME280;61687;56.232;43.854;2022-11-04T01:18:04;100594.59;;;2.56;74.08
73453;BME280;61687;56.232;43.854;2022-11-04T01:20:31;100596.22;;;2.43;74.01
73453;BME280;61687;56.232;43.854;2022-11-04T01:22:57;100597.94;;;2.39;74.37
73453;BME280;61687;56.232;43.854;2022-11-04T01:25:23;100594.53;;;2.33;74.37
73453;BME280;61687;56.232;43.854;2022-11-04T01:27:49;100599.69;;;2.21;74.34
73453;BME280;61687;56.232;43.854;2022-11-04T01:30:15;100602.69;;;2.19;74.53
73453;BME280;61687;56.232;43.854;2022-11-04T01:32:41;100595.50;;;2.14;74.65
73453;BME280;61687;56.232;43.854;2022-11-04T01:35:07;100603.41;;;2.11;74.87
73453;BME280;61687;56.232;43.854;2022-11-04T01:37:33;100598.88;;;2.06;74.74
73453;BME280;61687;56.232;43.854;2022-11-04T01:39:59;100598.72;;;2.03;74.69
73453;BME280;61687;56.232;43.854;2022-11-04T01:42:25;100595.31;;;1.97;74.89
73453;BME280;61687;56.232;43.854;2022-11-04T01:44:56;100602.91;;;1.95;74.98
73453;BME280;61687;56.232;43.854;2022-11-04T01:47:35;100600.72;;;1.97;74.83
73453;BME280;61687;56.232;43.854;2022-11-04T01:50:11;100600.81;;;1.92;74.84
73453;BME280;61687;56.232;43.854;2022-11-04T01:53:05;100607.91;;;1.88;74.94
73453;BME280;61687;56.232;43.854;2022-11-04T01:55:35;100608.84;;;1.83;75.20
73453;BME280;61687;56.232;43.854;2022-11-04T01:58:09;100610.63;;;1.88;75.30
73453;BME280;61687;56.232;43.854;2022-11-04T02:00:38;100605.69;;;1.90;75.32
73453;BME280;61687;56.232;43.854;2022-11-04T02:03:11;100607.31;;;1.91;75.28
73453;BME280;61687;56.232;43.854;2022-11-04T02:05:40;100614.34;;;1.92;75.11
73453;BME280;61687;56.232;43.854;2022-11-04T02:08:08;100610.53;;;1.93;75.16
73453;BME280;61687;56.232;43.854;2022-11-04T02:10:35;100613.41;;;1.96;75.10
73453;BME280;61687;56.232;43.854;2022-11-04T02:13:03;100610.72;;;1.96;75.28
73453;BME280;61687;56.232;43.854;2022-11-04T02:15:57;100608.31;;;1.95;75.22
73453;BME280;61687;56.232;43.854;2022-11-04T02:23:42;100619.72;;;1.78;75.91
73453;BME280;61687;56.232;43.854;2022-11-04T02:26:40;100623.72;;;1.80;75.90
73453;BME280;61687;56.232;43.854;2022-11-04T02:34:52;100612.31;;;1.83;76.09
73453;BME280;61687;56.232;43.854;2022-11-04T02:43:26;100616.03;;;1.88;76.05
73453;BME280;61687;56.232;43.854;2022-11-04T02:46:37;100613.31;;;1.88;76.07
73453;BME280;61687;56.232;43.854;2022-11-04T02:49:11;100609.44;;;1.94;75.83
73453;BME280;61687;56.232;43.854;2022-11-04T02:56:47;100614.50;;;2.23;75.06
73453;BME280;61687;56.232;43.854;2022-11-04T02:59:20;100618.59;;;2.21;74.66
73453;BME280;61687;56.232;43.854;2022-11-04T03:01:48;100619.31;;;2.12;74.24
73453;BME280;61687;56.232;43.854;2022-11-04T03:04:20;100622.44;;;2.06;74.41
73453;BME280;61687;56.232;43.854;2022-11-04T03:06:48;100615.50;;;1.99;74.53
73453;BME280;61687;56.232;43.854;2022-11-04T03:09:17;100614.03;;;1.93;74.44
73453;BME280;61687;56.232;43.854;2022-11-04T03:11:48;100624.72;;;1.84;74.76
73453;BME280;61687;56.232;43.854;2022-11-04T03:14:23;100626.34;;;1.85;74.65
73453;BME280;61687;56.232;43.854;2022-11-04T03:16:58;100635.44;;;1.76;74.08
73453;BME280;61687;56.232;43.854;2022-11-04T03:19:51;100627.31;;;1.76;74.17
73453;BME280;61687;56.232;43.854;2022-11-04T03:22:27;100625.72;;;1.75;74.29
73453;BME280;61687;56.232;43.854;2022-11-04T03:24:54;100634.53;;;1.80;74.37
73453;BME280;61687;56.232;43.854;2022-11-04T03:30:17;100629.03;;;1.71;74.18
73453;BME280;61687;56.232;43.854;2022-11-04T03:35:13;100627.53;;;1.65;74.69
73453;BME280;61687;56.232;43.854;2022-11-04T03:37:41;100633.44;;;1.67;74.60
73453;BME280;61687;56.232;43.854;2022-11-04T03:40:08;100634.75;;;1.70;74.50
73453;BME280;61687;56.232;43.854;2022-11-04T03:42:39;100641.94;;;1.75;74.46
73453;BME280;61687;56.232;43.854;2022-11-04T03:45:07;100633.53;;;1.76;74.39
73453;BME280;61687;56.232;43.854;2022-11-04T03:47:33;100643.53;;;1.76;74.55
73453;BME280;61687;56.232;43.854;2022-11-04T03:50:10;100639.75;;;1.77;74.36
73453;BME280;61687;56.232;43.854;2022-11-04T03:52:38;100638.84;;;1.67;74.49
73453;BME280;61687;56.232;43.854;2022-11-04T03:55:05;100636.75;;;1.64;74.72
73453;BME280;61687;56.232;43.854;2022-11-04T04:00:05;100639.13;;;1.66;75.07
73453;BME280;61687;56.232;43.854;2022-11-04T04:05:26;100634.81;;;1.51;75.59
73453;BME280;61687;56.232;43.854;2022-11-04T04:08:00;100644.28;;;1.48;75.85
73453;BME280;61687;56.232;43.854;2022-11-04T04:10:46;100649.91;;;1.52;75.65
73453;BME280;61687;56.232;43.854;2022-11-04T04:13:22;100643.50;;;1.48;75.83
73453;BME280;61687;56.232;43.854;2022-11-04T04:16:03;100644.22;;;1.39;76.16
73453;BME280;61687;56.232;43.854;2022-11-04T04:18:41;100648.19;;;1.42;76.38
73453;BME280;61687;56.232;43.854;2022-11-04T04:21:14;100644.09;;;1.45;76.25
73453;BME280;61687;56.232;43.854;2022-11-04T04:23:42;100642.50;;;1.43;76.14
73453;BME280;61687;56.232;43.854;2022-11-04T04:26:29;100644.00;;;1.50;76.09
73453;BME280;61687;56.232;43.854;2022-11-04T04:29:17;100643.91;;;1.55;75.72
73453;BME280;61687;56.232;43.854;2022-11-04T04:31:46;100646.94;;;1.53;75.97
73453;BME280;61687;56.232;43.854;2022-11-04T04:34:18;100643.84;;;1.60;75.68
73453;BME280;61687;56.232;43.854;2022-11-04T04:39:44;100651.00;;;1.51;75.17
73453;BME280;61687;56.232;43.854;2022-11-04T04:42:34;100648.50;;;1.40;75.18
73453;BME280;61687;56.232;43.854;2022-11-04T04:45:26;100646.69;;;1.36;75.30
73453;BME280;61687;56.232;43.854;2022-11-04T04:47:55;100662.00;;;1.40;75.57
73453;BME280;61687;56.232;43.854;2022-11-04T04:50:22;100658.72;;;1.43;75.44
73453;BME280;61687;56.232;43.854;2022-11-04T04:52:52;100651.41;;;1.44;75.34
73453;BME280;61687;56.232;43.854;2022-11-04T04:55:19;100658.84;;;1.52;75.29
73453;BME280;61687;56.232;43.854;2022-11-04T04:57:45;100659.03;;;1.56;75.17
73453;BME280;61687;56.232;43.854;2022-11-04T05:00:14;100664.94;;;1.58;75.15
73453;BME280;61687;56.232;43.854;2022-11-04T05:02:40;100666.75;;;1.63;75.32
73453;BME280;61687;56.232;43.854;2022-11-04T05:05:06;100665.53;;;1.55;75.36
73453;BME280;61687;56.232;43.854;2022-11-04T05:07:32;100666.13;;;1.52;75.50
73453;BME280;61687;56.232;43.854;2022-11-04T05:09:58;100665.34;;;1.51;75.37
73453;BME280;61687;56.232;43.854;2022-11-04T05:12:24;100665.63;;;1.50;75.23
73453;BME280;61687;56.232;43.854;2022-11-04T05:14:50;100672.41;;;1.47;75.33
73453;BME280;61687;56.232;43.854;2022-11-04T05:17:16;100671.31;;;1.48;75.36
73453;BME280;61687;56.232;43.854;2022-11-04T05:19:42;100677.81;;;1.47;75.33
73453;BME280;61687;56.232;43.854;2022-11-04T05:22:08;100675.50;;;1.40;75.58
73453;BME280;61687;56.232;43.854;2022-11-04T05:24:34;100673.91;;;1.39;75.65
73453;BME280;61687;56.232;43.854;2022-11-04T05:27:00;100674.91;;;1.43;75.90
73453;BME280;61687;56.232;43.854;2022-11-04T05:29:25;100678.13;;;1.46;75.67
73453;BME280;61687;56.232;43.854;2022-11-04T05:31:51;100682.94;;;1.49;75.68
73453;BME280;61687;56.232;43.854;2022-11-04T05:34:17;100677.75;;;1.52;75.55
73453;BME280;61687;56.232;43.854;2022-11-04T05:36:43;100680.13;;;1.54;75.60
73453;BME280;61687;56.232;43.854;2022-11-04T05:39:11;100675.91;;;1.48;75.69
73453;BME280;61687;56.232;43.854;2022-11-04T05:41:37;100684.53;;;1.50;75.71
73453;BME280;61687;56.232;43.854;2022-11-04T05:44:03;100681.53;;;1.51;75.84
73453;BME280;61687;56.232;43.854;2022-11-04T05:46:30;100684.81;;;1.48;75.84
73453;BME280;61687;56.232;43.854;2022-11-04T05:48:56;100679.34;;;1.53;76.03
73453;BME280;61687;56.232;43.854;2022-11-04T05:51:24;100681.66;;;1.60;76.02
73453;BME280;61687;56.232;43.854;2022-11-04T05:53:50;100685.78;;;1.71;75.94
73453;BME280;61687;56.232;43.854;2022-11-04T05:56:16;100682.38;;;1.80;75.57
73453;BME280;61687;56.232;43.854;2022-11-04T05:58:42;100687.97;;;1.83;75.66
73453;BME280;61687;56.232;43.854;2022-11-04T06:01:31;100689.31;;;1.86;75.41
73453;BME280;61687;56.232;43.854;2022-11-04T06:03:57;100691.50;;;1.98;75.16
73453;BME280;61687;56.232;43.854;2022-11-04T06:06:26;100692.72;;;2.06;74.77
73453;BME280;61687;56.232;43.854;2022-11-04T06:08:52;100682.91;;;2.10;74.58
73453;BME280;61687;56.232;43.854;2022-11-04T06:11:19;100688.81;;;2.12;74.60
73453;BME280;61687;56.232;43.854;2022-11-04T06:13:45;100685.22;;;2.17;74.43
73453;BME280;61687;56.232;43.854;2022-11-04T06:16:11;100686.41;;;2.24;74.53
73453;BME280;61687;56.232;43.854;2022-11-04T06:18:37;100684.88;;;2.32;74.40
73453;BME280;61687;56.232;43.854;2022-11-04T06:23:36;100685.38;;;2.20;73.62
73453;BME280;61687;56.232;43.854;2022-11-04T06:26:02;100695.53;;;2.14;73.91
73453;BME280;61687;56.232;43.854;2022-11-04T06:28:27;100692.41;;;2.21;73.67
73453;BME280;61687;56.232;43.854;2022-11-04T06:30:56;100690.28;;;2.32;73.65
73453;BME280;61687;56.232;43.854;2022-11-04T06:33:22;100693.28;;;2.45;73.50
73453;BME280;61687;56.232;43.854;2022-11-04T06:35:48;100691.97;;;2.42;72.78
73453;BME280;61687;56.232;43.854;2022-11-04T06:38:14;100694.59;;;2.33;72.72
73453;BME280;61687;56.232;43.854;2022-11-04T06:40:39;100693.31;;;2.31;72.82
73453;BME280;61687;56.232;43.854;2022-11-04T06:43:05;100692.50;;;2.30;72.84
73453;BME280;61687;56.232;43.854;2022-11-04T06:45:31;100699.22;;;2.33;72.79
73453;BME280;61687;56.232;43.854;2022-11-04T06:47:57;100694.72;;;2.28;72.49
73453;BME280;61687;56.232;43.854;2022-11-04T06:50:23;100700.31;;;2.32;72.10
73453;BME280;61687;56.232;43.854;2022-11-04T06:52:48;100703.44;;;2.25;71.93
73453;BME280;61687;56.232;43.854;2022-11-04T06:55:14;100701.44;;;2.31;72.22
73453;BME280;61687;56.232;43.854;2022-11-04T06:57:40;100696.91;;;2.40;72.24
73453;BME280;61687;56.232;43.854;2022-11-04T07:00:06;100706.63;;;2.41;71.71
73453;BME280;61687;56.232;43.854;2022-11-04T07:02:32;100705.41;;;2.33;71.75
73453;BME280;61687;56.232;43.854;2022-11-04T07:04:58;100707.13;;;2.29;71.70
73453;BME280;61687;56.232;43.854;2022-11-04T07:07:24;100711.16;;;2.32;72.18
73453;BME280;61687;56.232;43.854;2022-11-04T07:09:50;100712.25;;;2.31;71.85
73453;BME280;61687;56.232;43.854;2022-11-04T07:12:15;100709.03;;;2.28;71.95
73453;BME280;61687;56.232;43.854;2022-11-04T07:14:41;100708.03;;;2.38;72.16
73453;BME280;61687;56.232;43.854;2022-11-04T07:17:07;100712.31;;;2.53;72.22
73453;BME280;61687;56.232;43.854;2022-11-04T07:19:33;100708.22;;;2.56;71.62
73453;BME280;61687;56.232;43.854;2022-11-04T07:21:59;100711.00;;;2.51;71.56
73453;BME280;61687;56.232;43.854;2022-11-04T07:24:25;100716.63;;;2.54;72.15
73453;BME280;61687;56.232;43.854;2022-11-04T07:26:53;100721.22;;;2.54;71.68
73453;BME280;61687;56.232;43.854;2022-11-04T07:29:20;100717.50;;;2.64;71.48
73453;BME280;61687;56.232;43.854;2022-11-04T07:31:46;100716.41;;;2.79;71.29
73453;BME280;61687;56.232;43.854;2022-11-04T07:34:11;100716.16;;;2.89;70.67
73453;BME280;61687;56.232;43.854;2022-11-04T07:36:37;100712.91;;;3.01;70.45
73453;BME280;61687;56.232;43.854;2022-11-04T07:39:04;100722.84;;;3.06;70.38
73453;BME280;61687;56.232;43.854;2022-11-04T07:41:31;100720.41;;;3.04;69.95
73453;BME280;61687;56.232;43.854;2022-11-04T07:43:57;100716.03;;;3.08;69.95
73453;BME280;61687;56.232;43.854;2022-11-04T07:46:23;100720.00;;;3.11;69.87
73453;BME280;61687;56.232;43.854;2022-11-04T07:48:49;100710.09;;;3.06;69.66
73453;BME280;61687;56.232;43.854;2022-11-04T07:51:16;100720.19;;;3.14;69.58
73453;BME280;61687;56.232;43.854;2022-11-04T07:53:42;100715.16;;;3.22;69.48
73453;BME280;61687;56.232;43.854;2022-11-04T07:56:10;100716.13;;;3.26;69.26
73453;BME280;61687;56.232;43.854;2022-11-04T07:58:39;100717.06;;;3.21;68.79
73453;BME280;61687;56.232;43.854;2022-11-04T08:01:09;100724.38;;;3.21;69.15
73453;BME280;61687;56.232;43.854;2022-11-04T08:03:35;100721.72;;;3.07;68.71
73453;BME280;61687;56.232;43.854;2022-11-04T08:06:03;100723.25;;;2.99;69.23
73453;BME280;61687;56.232;43.854;2022-11-04T08:08:29;100721.94;;;2.96;69.32
73453;BME280;61687;56.232;43.854;2022-11-04T08:11:02;100716.94;;;3.04;69.25
73453;BME280;61687;56.232;43.854;2022-11-04T08:13:30;100717.84;;;2.99;69.29
73453;BME280;61687;56.232;43.854;2022-11-04T08:16:00;100715.38;;;2.89;69.48
73453;BME280;61687;56.232;43.854;2022-11-04T08:18:27;100708.38;;;2.88;69.39
73453;BME280;61687;56.232;43.854;2022-11-04T08:20:53;100710.25;;;2.87;69.21
73453;BME280;61687;56.232;43.854;2022-11-04T08:23:19;100718.88;;;2.89;69.47
73453;BME280;61687;56.232;43.854;2022-11-04T08:25:45;100713.88;;;2.82;69.60
73453;BME280;61687;56.232;43.854;2022-11-04T08:28:12;100718.16;;;2.83;69.53
73453;BME280;61687;56.232;43.854;2022-11-04T08:31:03;100712.38;;;2.76;69.84
73453;BME280;61687;56.232;43.854;2022-11-04T08:33:31;100712.38;;;2.76;70.12
73453;BME280;61687;56.232;43.854;2022-11-04T08:36:05;100711.66;;;2.84;69.91
73453;BME280;61687;56.232;43.854;2022-11-04T08:38:31;100709.84;;;2.94;69.79
73453;BME280;61687;56.232;43.854;2022-11-04T08:41:00;100707.50;;;3.01;69.18
73453;BME280;61687;56.232;43.854;2022-11-04T08:43:27;100714.84;;;3.00;69.25
73453;BME280;61687;56.232;43.854;2022-11-04T08:45:53;100702.78;;;3.07;69.31
73453;BME280;61687;56.232;43.854;2022-11-04T08:48:19;100705.28;;;3.26;68.96
73453;BME280;61687;56.232;43.854;2022-11-04T08:50:53;100713.41;;;3.26;68.47
73453;BME280;61687;56.232;43.854;2022-11-04T08:53:19;100715.22;;;3.31;68.52
73453;BME280;61687;56.232;43.854;2022-11-04T08:55:45;100711.09;;;3.33;68.37
73453;BME280;61687;56.232;43.854;2022-11-04T08:58:11;100717.56;;;3.46;69.00
73453;BME280;61687;56.232;43.854;2022-11-04T09:00:37;100728.31;;;3.60;68.49
73453;BME280;61687;56.232;43.854;2022-11-04T09:03:04;100716.13;;;3.71;68.25
73453;BME280;61687;56.232;43.854;2022-11-04T09:05:30;100727.19;;;3.84;67.89
73453;BME280;61687;56.232;43.854;2022-11-04T09:07:56;100726.75;;;3.91;67.20
73453;BME280;61687;56.232;43.854;2022-11-04T09:10:22;100728.97;;;3.89;66.39
73453;BME280;61687;56.232;43.854;2022-11-04T09:12:48;100731.38;;;3.67;65.67
73453;BME280;61687;56.232;43.854;2022-11-04T09:15:14;100717.63;;;3.55;66.38
73453;BME280;61687;56.232;43.854;2022-11-04T09:17:40;100729.19;;;3.47;66.90
73453;BME280;61687;56.232;43.854;2022-11-04T09:20:09;100723.59;;;3.43;67.56
73453;BME280;61687;56.232;43.854;2022-11-04T09:22:35;100730.78;;;3.48;67.30
73453;BME280;61687;56.232;43.854;2022-11-04T09:25:01;100724.94;;;3.54;67.29
73453;BME280;61687;56.232;43.854;2022-11-04T09:27:26;100733.25;;;3.58;67.50
73453;BME280;61687;56.232;43.854;2022-11-04T09:29:52;100735.03;;;3.63;67.72
73453;BME280;61687;56.232;43.854;2022-11-04T09:32:18;100729.28;;;3.64;67.78
73453;BME280;61687;56.232;43.854;2022-11-04T09:34:44;100729.28;;;3.64;67.67
73453;BME280;61687;56.232;43.854;2022-11-04T09:37:09;100733.94;;;3.64;67.30
73453;BME280;61687;56.232;43.854;2022-11-04T09:39:35;100733.13;;;3.63;67.27
73453;BME280;61687;56.232;43.854;2022-11-04T09:42:20;100723.88;;;3.64;67.46
73453;BME280;61687;56.232;43.854;2022-11-04T09:45:13;100727.88;;;3.67;67.26
73453;BME280;61687;56.232;43.854;2022-11-04T09:47:46;100725.47;;;3.65;66.40
73453;BME280;61687;56.232;43.854;2022-11-04T09:50:23;100735.63;;;3.60;65.93
73453;BME280;61687;56.232;43.854;2022-11-04T09:52:54;100734.84;;;3.59;66.26
73453;BME280;61687;56.232;43.854;2022-11-04T09:55:49;100728.47;;;3.55;66.54
73453;BME280;61687;56.232;43.854;2022-11-04T09:58:17;100727.78;;;3.49;66.08
73453;BME280;61687;56.232;43.854;2022-11-04T10:00:51;100721.44;;;3.31;65.80
73453;BME280;61687;56.232;43.854;2022-11-04T10:03:22;100726.31;;;3.20;65.76
73453;BME280;61687;56.232;43.854;2022-11-04T10:09:05;100722.56;;;2.93;66.03
73453;BME280;61687;56.232;43.854;2022-11-04T10:22:30;100729.00;;;2.97;66.91
73453;BME280;61687;56.232;43.854;2022-11-04T10:25:07;100728.59;;;2.90;66.13
73453;BME280;61687;56.232;43.854;2022-11-04T10:27:36;100736.00;;;2.84;66.15
73453;BME280;61687;56.232;43.854;2022-11-04T10:30:17;100735.53;;;2.82;66.31
73453;BME280;61687;56.232;43.854;2022-11-04T10:35:44;100738.72;;;2.84;66.74
73453;BME280;61687;56.232;43.854;2022-11-04T10:38:17;100736.03;;;2.70;67.86
73453;BME280;61687;56.232;43.854;2022-11-04T10:40:50;100732.63;;;2.65;68.72
73453;BME280;61687;56.232;43.854;2022-11-04T10:48:49;100738.47;;;2.58;69.67
73453;BME280;61687;56.232;43.854;2022-11-04T10:51:17;100737.97;;;2.70;69.47
73453;BME280;61687;56.232;43.854;2022-11-04T10:53:49;100738.06;;;2.79;69.40
73453;BME280;61687;56.232;43.854;2022-11-04T10:56:28;100736.41;;;2.92;68.97
73453;BME280;61687;56.232;43.854;2022-11-04T10:58:59;100740.47;;;3.03;68.66
73453;BME280;61687;56.232;43.854;2022-11-04T11:01:33;100741.31;;;3.04;68.47
73453;BME280;61687;56.232;43.854;2022-11-04T11:04:00;100745.53;;;2.96;68.61
73453;BME280;61687;56.232;43.854;2022-11-04T11:06:32;100736.53;;;2.86;68.84
73453;BME280;61687;56.232;43.854;2022-11-04T11:14:56;100748.44;;;2.85;68.03
73453;BME280;61687;56.232;43.854;2022-11-04T11:17:34;100744.25;;;2.79;68.19
73453;BME280;61687;56.232;43.854;2022-11-04T11:20:22;100751.66;;;2.74;68.27
73453;BME280;61687;56.232;43.854;2022-11-04T11:22:48;100745.97;;;2.75;68.57
73453;BME280;61687;56.232;43.854;2022-11-04T11:30:29;100749.50;;;2.48;70.28
73453;BME280;61687;56.232;43.854;2022-11-04T11:33:02;100744.09;;;2.34;71.30
73453;BME280;61687;56.232;43.854;2022-11-04T11:35:32;100751.50;;;2.28;71.76
73453;BME280;61687;56.232;43.854;2022-11-04T11:37:59;100750.09;;;2.17;72.67
73453;BME280;61687;56.232;43.854;2022-11-04T11:40:31;100754.59;;;2.21;73.06
73453;BME280;61687;56.232;43.854;2022-11-04T11:43:00;100746.69;;;2.25;73.08
73453;BME280;61687;56.232;43.854;2022-11-04T11:45:27;100755.63;;;2.25;73.88
73453;BME280;61687;56.232;43.854;2022-11-04T11:47:54;100750.88;;;2.17;74.16
73453;BME280;61687;56.232;43.854;2022-11-04T11:50:28;100748.28;;;2.12;74.28
73453;BME280;61687;56.232;43.854;2022-11-04T11:53:12;100748.56;;;2.10;74.51
73453;BME280;61687;56.232;43.854;2022-11-04T11:59:00;100757.00;;;2.09;75.14
73453;BME280;61687;56.232;43.854;2022-11-04T12:01:41;100765.72;;;2.20;74.55
73453;BME280;61687;56.232;43.854;2022-11-04T12:04:11;100768.13;;;2.21;75.07
73453;BME280;61687;56.232;43.854;2022-11-04T12:09:39;100767.31;;;2.21;75.09
73453;BME280;61687;56.232;43.854;2022-11-04T12:21:00;100772.75;;;2.21;72.87
73453;BME280;61687;56.232;43.854;2022-11-04T12:23:54;100768.66;;;2.23;72.44
73453;BME280;61687;56.232;43.854;2022-11-04T12:26:28;100770.94;;;2.30;72.56
73453;BME280;61687;56.232;43.854;2022-11-04T12:34:38;100780.97;;;2.29;72.04
73453;BME280;61687;56.232;43.854;2022-11-04T12:39:57;100785.16;;;2.36;72.62
73453;BME280;61687;56.232;43.854;2022-11-04T12:47:45;100792.00;;;2.47;72.58
73453;BME280;61687;56.232;43.854;2022-11-04T12:58:22;100810.31;;;2.50;72.52
73453;BME280;61687;56.232;43.854;2022-11-04T13:01:03;100806.19;;;2.53;72.44
73453;BME280;61687;56.232;43.854;2022-11-04T13:03:39;100801.59;;;2.53;72.04
73453;BME280;61687;56.232;43.854;2022-11-04T13:06:24;100798.28;;;2.42;71.38
73453;BME280;61687;56.232;43.854;2022-11-04T13:08:57;100799.19;;;2.38;71.05
73453;BME280;61687;56.232;43.854;2022-11-04T13:11:49;100802.41;;;2.40;70.98
73453;BME280;61687;56.232;43.854;2022-11-04T13:14:31;100804.41;;;2.48;71.03
73453;BME280;61687;56.232;43.854;2022-11-04T13:17:05;100810.81;;;2.52;70.81
73453;BME280;61687;56.232;43.854;2022-11-04T13:19:44;100810.72;;;2.57;70.82
73453;BME280;61687;56.232;43.854;2022-11-04T13:22:26;100806.91;;;2.58;70.62
73453;BME280;61687;56.232;43.854;2022-11-04T13:25:03;100802.72;;;2.52;70.26
73453;BME280;61687;56.232;43.854;2022-11-04T13:27:36;100809.00;;;2.48;70.59
73453;BME280;61687;56.232;43.854;2022-11-04T13:30:16;100807.41;;;2.47;70.71
73453;BME280;61687;56.232;43.854;2022-11-04T13:38:19;100820.16;;;2.46;70.51
73453;BME280;61687;56.232;43.854;2022-11-04T13:43:38;100818.94;;;2.52;70.40
73453;BME280;61687;56.232;43.854;2022-11-04T13:46:18;100823.16;;;2.58;70.32
73453;BME280;61687;56.232;43.854;2022-11-04T13:51:20;100818.44;;;2.64;70.28
73453;BME280;61687;56.232;43.854;2022-11-04T13:53:54;100818.22;;;2.61;70.04
73453;BME280;61687;56.232;43.854;2022-11-04T13:56:31;100822.16;;;2.54;70.05
73453;BME280;61687;56.232;43.854;2022-11-04T13:59:03;100828.06;;;2.56;70.17
73453;BME280;61687;56.232;43.854;2022-11-04T14:01:32;100826.66;;;2.59;70.07
73453;BME280;61687;56.232;43.854;2022-11-04T14:20:07;100841.66;;;2.23;71.05
73453;BME280;61687;56.232;43.854;2022-11-04T14:25:26;100850.44;;;2.15;71.78
73453;BME280;61687;56.232;43.854;2022-11-04T14:27:58;100842.41;;;2.10;72.12
73453;BME280;61687;56.232;43.854;2022-11-04T14:35:54;100850.44;;;2.15;72.02
73453;BME280;61687;56.232;43.854;2022-11-04T14:38:27;100847.06;;;2.23;72.08
73453;BME280;61687;56.232;43.854;2022-11-04T14:43:54;100851.41;;;2.38;71.78
73453;BME280;61687;56.232;43.854;2022-11-04T14:46:25;100861.31;;;2.43;71.90
73453;BME280;61687;56.232;43.854;2022-11-04T14:48:55;100853.19;;;2.43;71.75
73453;BME280;61687;56.232;43.854;2022-11-04T14:51:27;100852.69;;;2.41;71.53
73453;BME280;61687;56.232;43.854;2022-11-04T14:54:03;100854.59;;;2.40;71.71
73453;BME280;61687;56.232;43.854;2022-11-04T14:56:30;100854.78;;;2.44;71.90
73453;BME280;61687;56.232;43.854;2022-11-04T14:59:04;100854.22;;;2.47;71.75
73453;BME280;61687;56.232;43.854;2022-11-04T15:01:36;100862.00;;;2.35;71.31
73453;BME280;61687;56.232;43.854;2022-11-04T15:04:13;100862.38;;;2.28;71.56
73453;BME280;61687;56.232;43.854;2022-11-04T15:06:53;100862.97;;;2.25;71.34
73453;BME280;61687;56.232;43.854;2022-11-04T15:09:26;100866.50;;;2.25;71.53
73453;BME280;61687;56.232;43.854;2022-11-04T15:14:53;100877.09;;;2.22;69.73
73453;BME280;61687;56.232;43.854;2022-11-04T15:17:21;100878.06;;;2.12;70.31
73453;BME280;61687;56.232;43.854;2022-11-04T15:19:51;100887.88;;;2.08;70.71
73453;BME280;61687;56.232;43.854;2022-11-04T15:22:18;100884.16;;;2.04;70.26
73453;BME280;61687;56.232;43.854;2022-11-04T15:24:45;100888.09;;;1.92;70.98
73453;BME280;61687;56.232;43.854;2022-11-04T15:27:15;100898.63;;;1.94;71.12
73453;BME280;61687;56.232;43.854;2022-11-04T15:29:53;100899.28;;;2.05;71.02
73453;BME280;61687;56.232;43.854;2022-11-04T15:32:24;100898.81;;;2.17;70.76
73453;BME280;61687;56.232;43.854;2022-11-04T15:34:51;100899.41;;;2.13;70.98
73453;BME280;61687;56.232;43.854;2022-11-04T15:37:18;100905.06;;;1.98;71.54